• Join FlightAware (Why Join?)
  • Login
  • US Flag 
03:42AM EDT


 

Airport Tracker/Info


-or-


 

Live Flight TrackerFlight Track Log ✈ LOF3416 ✈ 16-Apr-2013 ✈ KIAD - KDAY

Flight Track Log - Related Links

Times and Time Zones

All times are in EDT time to prevent confusion due to time zone crossing. See the LOF3416 flight status page for this flight to view local times or setup timezone preferences in your user account.

Time Position Orientation Groundspeed Altitude Reporting Facility
EDT Latitude Longitude Course Direction KTS MPH feet Rate Location/Type
10:28PM 38.9500 -77.5167 288° West 162 186 2,100  Level Potomac TRACON
10:29PM 38.9167 -77.5833 237° Southwest 195 224 3,900 1,620 Climbing Potomac TRACON
10:30PM 38.9039 -77.6669 259° West 224 258 5,700 1,980 Climbing Washington Center
10:31PM 38.8917 -77.7625 261° West 244 281 8,300 2,340 Climbing Washington Center
10:32PM 38.8881 -77.8425 267° West 254 292 10,400 1,740 Climbing Washington Center
10:33PM 38.8994 -78.0306 288° West  Level FlightAware Approximate
10:33PM 38.9050 -77.9469 282° West 259 298 11,800  Level Washington Center
10:34PM 38.9258 -78.0492 285° West 276 318 13,400 1,440 Climbing Washington Center
10:35PM 38.9486 -78.1594 285° West 296 341 14,700 1,380 Climbing Washington Center
10:36PM 38.9608 -78.2692 278° West 308 354 16,300 1,500 Climbing Washington Center
10:37PM 38.9644 -78.3842 272° West 316 364 17,700 1,500 Climbing Washington Center
10:38PM 38.9681 -78.4992 272° West 322 371 19,300 1,560 Climbing Washington Center
10:39PM 38.9714 -78.6114 272° West 322 371 20,900 1,620 Climbing Washington Center
10:40PM 38.9500 -78.7172 255° West 312 359 22,600 1,500 Climbing Washington Center
10:41PM 38.9014 -78.8167 238° Southwest 317 365 23,900 1,440 Climbing Washington Center
10:42PM 38.8508 -78.9103 235° Southwest 324 373 25,600 1,560 Climbing Washington Center
10:43PM 38.8025 -79.0067 237° Southwest 330 380 27,100 1,200 Climbing Washington Center
10:44PM 38.7517 -79.1003 235° Southwest 330 380 28,000 420 Climbing Washington Center
10:45PM 38.7006 -79.2069 238° Southwest 338 389 28,000  Level Washington Center
10:46PM 38.6469 -79.3267 240° Southwest 370 426 28,000  Level Washington Center
10:47PM 38.6014 -79.4517 245° Southwest 384 442 28,000  Level Washington Center
10:48PM 38.6281 -79.5886 284° West 371 427 28,000  Level Washington Center
10:49PM 38.6719 -79.7081 295° West 384 442 28,000  Level Washington Center
10:50PM 38.7156 -79.8356 294° West 389 448 28,000  Level Washington Center
10:51PM 38.7589 -79.9658 293° West 394 453 28,000  Level Washington Center
10:52PM 38.7961 -80.0828 292° West 380 437 28,000  Level Washington Center
10:53PM 38.8358 -80.1944 295° West 342 394 28,000  Level Washington Center
10:54PM 38.8689 -80.2967 293° West 312 359 28,000  Level Indianapolis Center
10:55PM 38.9033 -80.4078 292° West 332 382 28,000  Level Indianapolis Center
10:56PM 38.9403 -80.5308 291° West 365 420 28,000  Level Indianapolis Center
10:57PM 38.9625 -80.6658 282° West 386 444 28,000  Level Indianapolis Center
10:58PM 38.9864 -80.8058 282° West 400 460 28,000  Level Indianapolis Center
10:59PM 39.0100 -80.9497 282° West 410 472 28,000  Level Indianapolis Center
11:00PM 39.0383 -81.1225 282° West 414 476 28,000  Level Indianapolis Center
11:01PM 39.0611 -81.2608 282° West 402 463 28,000  Level Indianapolis Center
11:02PM 39.0828 -81.3947 282° West 388 447 28,000  Level Indianapolis Center
11:03PM 39.1033 -81.5264 281° West 381 438 28,000  Level Indianapolis Center
11:04PM 39.1247 -81.6614 282° West 386 444 28,000  Level Indianapolis Center
11:05PM 39.1467 -81.8006 282° West 398 458 28,000  Level Indianapolis Center
11:06PM 39.1675 -81.9419 281° West 404 465 28,000 -480 Level Indianapolis Center
11:07PM 39.1892 -82.0836 281° West 406 467 27,100 -1,320 Descending Indianapolis Center
11:08PM 39.2111 -82.2250 281° West 404 465 25,400 -1,920 Descending Indianapolis Center
11:09PM 39.2372 -82.3997 281° West 415 478 23,300 -1,800 Descending Indianapolis Center
11:10PM 39.2547 -82.5200 281° West 402 463 21,800 -1,740 Descending Indianapolis Center
11:11PM 39.2783 -82.6781 281° West 382 440 19,800 -1,920 Descending Indianapolis Center
11:12PM 39.2981 -82.8100 281° West 372 428 18,000 -1,680 Descending Indianapolis Center
11:13PM 39.3169 -82.9394 281° West 365 420 16,500 -1,620 Descending Indianapolis Center
11:14PM 39.3303 -83.0392 280° West 358 412 15,200 -1,800 Descending Indianapolis Center
11:14PM 39.3344 -83.0647 282° West 355 409 14,700 -1,860 Descending Indianapolis Center
11:15PM 39.3406 -83.1022 282° West 350 403 14,100 -1,680 Descending Indianapolis Center
11:15PM 39.3528 -83.1875 281° West 344 396 13,000 -1,680 Descending Indianapolis Center
11:16PM 39.3583 -83.2339 279° West 343 395 12,400 -1,800 Descending Indianapolis Center
11:16PM 39.3819 -83.3011 294° West 327 376 11,200 -1,380 Descending Indianapolis Center
11:17PM 39.3969 -83.3408 296° West 316 364 11,000 -300 Descending Indianapolis Center
11:17PM 39.4194 -83.4067 294° West 318 366 10,900  Descending Indianapolis Center
11:18PM 39.4333 -83.4453 295° West 320 368 11,000  Climbing Indianapolis Center
11:18PM 39.4578 -83.5122 295° West 320 368 10,900 -120 Descending Indianapolis Center
11:19PM 39.4717 -83.5497 296° West 321 369 10,900 -600 Level Indianapolis Center
11:19PM 39.4983 -83.6197 296° West 326 375 10,300 -840 Descending Indianapolis Center
11:20PM 39.5119 -83.6575 295° West 339 390 10,100 -420 Descending Indianapolis Center
11:20PM 39.5403 -83.7311 297° West 338 389 9,900 -240 Descending Indianapolis Center
11:21PM 39.5519 -83.7653 294° West 329 379 9,900  Level Indianapolis Center
11:21PM 39.5794 -83.8372 296° West 325 374 9,900 60 Level Indianapolis Center
11:22PM 39.5942 -83.8736 298° West 324 373 10,000  Climbing Indianapolis Center
11:22PM 39.6117 -83.9436 288° West 315 362 9,900 -300 Descending Indianapolis Center
11:23PM 39.6158 -83.9739 280° West 256 295 9,700 -1,500 Descending Indianapolis Center
11:23PM 39.6289 -84.0319 286° West 260 299 8,400 -1,740 Descending Indianapolis Center
11:24PM 39.6361 -84.0631 287° West 259 298 8,000 -1,380 Descending Indianapolis Center
11:24PM 39.6492 -84.1214 286° West 256 295 7,000 -1,920 Descending Indianapolis Center
11:25PM 39.6567 -84.1472 291° West 242 278 6,100 -2,700 Descending Indianapolis Center
11:25PM 39.6753 -84.2031 293° West 249 287 4,300 -2,100 Descending Indianapolis Center
11:26PM 39.6883 -84.2272 305° West 250 288 4,000 -300 Descending Indianapolis Center
11:26PM 39.7108 -84.2814 298° West 248 285 4,000  Level Indianapolis Center
11:27PM 39.7219 -84.3050 301° West 245 282 4,000 -600 Level Indianapolis Center
11:27PM 39.7497 -84.3528 307° West 243 280 3,400 -900 Descending Indianapolis Center
11:28PM 39.7628 -84.3703 314° West 231 266 3,100 -540 Descending Indianapolis Center
11:28PM 39.8067 -84.3831 347° North 243 280 2,900 -240 Descending Indianapolis Center
11:29PM 39.8211 -84.3728 29° Northeast 240 276 2,900  Level Indianapolis Center